Velserdiep — PBLP — position and weather

sailwx.info

Track history (hours):
 
Tides and Currents Weather Stations Pressure Air Temp Water Temp Dewpoint Dewpoint Depression Visibility Wind Speed Wind Dir Waves Ship Positions

Velserdiep

Last reported at 2014-Dec-20 21:33 UTC. Time now 2014-Dec-20 22:18 UTC.
Position N 53°29' E 005°09'.

Length 120 m; draft 5.3 m.

Type: Cargo ship. MMSI: 244484000.

Date/timePositionNaut miles runAvg speedWind from/ knotsBaromVisibWave heightAir tempDewpointWater temp
2014-Dec-20 21:33N 53°29' E 005°09'8 8.0
2014-Dec-20 20:33N 53°27' E 004°57'8 8.1
2014-Dec-20 19:33N 53°24' E 004°44'6 6.5
2014-Dec-20 18:33N 53°18' E 004°38'7 6.1
2014-Dec-20 17:21N 53°12' E 004°32'5 6.5
2014-Dec-20 16:33N 53°07' E 004°28'17 8.1
2014-Dec-20 14:25N 52°52' E 004°15'1410.7
2014-Dec-20 13:09N 52°42' E 004°00'6 9.4
2014-Dec-20 12:33N 52°36' E 003°57'9 8.9
2014-Dec-20 11:33N 52°28' E 003°54'9 9.1
2014-Dec-20 10:33N 52°19' E 003°52'8 8.0
2014-Dec-20 09:33N 52°11' E 003°55'8 7.5
2014-Dec-20 08:33N 52°04' E 003°59'8 8.3
2014-Dec-20 07:33N 51°58' E 004°09'1010.5
2014-Dec-20 06:33N 51°54' E 004°24'3 2.4
2014-Dec-20 05:32N 51°54' E 004°28'0 0.0
2014-Dec-20 04:32N 51°54' E 004°28'0 0.0
2014-Dec-20 03:32N 51°54' E 004°28'0 0.0
2014-Dec-20 02:32N 51°54' E 004°28'0 0.0
2014-Dec-20 01:32N 51°54' E 004°28'0 0.0
2014-Dec-20 00:32N 51°54' E 004°28'0 0.3
2014-Dec-19 23:33N 51°54' E 004°28'1 1.4
2014-Dec-19 22:33N 51°53' E 004°26'0 0.0
2014-Dec-19 21:33N 51°53' E 004°26'0 0.0
2014-Dec-19 20:33N 51°53' E 004°26'0 0.0
2014-Dec-19 19:33N 51°53' E 004°26'0 0.0
2014-Dec-19 18:33N 51°53' E 004°26'0 0.0
2014-Dec-19 17:33N 51°53' E 004°26'0 0.0
2014-Dec-19 16:33N 51°53' E 004°26'0 0.0
2014-Dec-19 15:33N 51°53' E 004°26'0 0.0
2014-Dec-19 14:33N 51°53' E 004°26'0 0.0
2014-Dec-19 13:33N 51°53' E 004°26'0 0.0
2014-Dec-19 12:33N 51°53' E 004°26'0 0.0
2014-Dec-19 11:33N 51°53' E 004°26'0 0.0
2014-Dec-19 10:33N 51°53' E 004°26'0 0.0
2014-Dec-19 09:33N 51°53' E 004°26'0 0.0
2014-Dec-19 08:33N 51°53' E 004°26'0 0.0
2014-Dec-19 07:33N 51°53' E 004°26'0 0.0
2014-Dec-19 06:33N 51°53' E 004°26'0 0.0
2014-Dec-19 05:33N 51°53' E 004°26'0 0.2
2014-Dec-19 04:33N 51°53' E 004°27'1 1.1
2014-Dec-19 03:33N 51°54' E 004°28'0 0.0
2014-Dec-19 02:33N 51°54' E 004°28'0 0.0
2014-Dec-19 01:33N 51°54' E 004°28'0 0.0
2014-Dec-19 00:33N 51°54' E 004°28'0 0.0
2014-Dec-18 23:33N 51°54' E 004°28'0 0.0
2014-Dec-18 22:33N 51°54' E 004°28'0 0.0
2014-Dec-18 21:33N 51°54' E 004°28'0 0.0
2014-Dec-18 20:33N 51°54' E 004°28'0 0.0
2014-Dec-18 19:33N 51°54' E 004°28'0 0.0
2014-Dec-18 18:33N 51°54' E 004°28'0 0.0
2014-Dec-18 17:33N 51°54' E 004°28'0 0.0
2014-Dec-18 16:33N 51°54' E 004°28'0 0.0
2014-Dec-18 15:33N 51°54' E 004°28'0 0.0
2014-Dec-18 14:33N 51°54' E 004°28'0 0.0
2014-Dec-18 13:33N 51°54' E 004°28'0 0.0
2014-Dec-18 12:33N 51°54' E 004°28'0 0.0
2014-Dec-18 11:33N 51°54' E 004°28'0 0.0
2014-Dec-18 10:33N 51°54' E 004°28'2 2.4
2014-Dec-18 09:33N 51°54' E 004°24'9 9.3
2014-Dec-18 08:33N 51°57' E 004°10'10 9.6
2014-Dec-18 07:33N 52°00' E 003°55'9 9.3
2014-Dec-18 06:33N 51°58' E 003°40'1010.1
2014-Dec-18 05:32N 51°55' E 003°24'1210.1
2014-Dec-18 04:20N 51°52' E 003°05'1910.3
2014-Dec-18 02:32N 51°45' E 002°37'1111.0
2014-Dec-18 01:33N 51°37' E 002°26'1211.5
2014-Dec-18 00:28N 51°27' E 002°14'1111.7
2014-Dec-17 23:33N 51°18' E 002°07'1111.4
2014-Dec-17 22:34N 51°10' E 001°54'1212.3
2014-Dec-17 21:33N 51°02' E 001°39'  
2014-Dec-14 00:20N 39°13' W 009°56'7 8.3
2014-Dec-13 23:28N 39°06' W 009°56'8 8.1
2014-Dec-13 22:33N 38°59' W 009°56'9 8.4
2014-Dec-13 21:31N 38°50' W 009°56'9 8.7
2014-Dec-13 20:31N 38°41' W 009°56'8 8.4
2014-Dec-13 19:31N 38°33' W 009°54'9 8.9
2014-Dec-13 18:33N 38°25' W 009°51'10 9.5
2014-Dec-13 17:31N 38°15' W 009°49'11 9.7
2014-Dec-13 16:25N 38°05' W 009°45'11 9.8
2014-Dec-13 15:16N 37°54' W 009°42'7 9.9
2014-Dec-13 14:33N 37°47' W 009°40'10 9.7
2014-Dec-13 13:33N 37°38' W 009°37'10 9.6
2014-Dec-13 12:31N 37°28' W 009°35'220 9.2
2014-Dec-12 12:33N 35°59' W 005°24'7 6.6
2014-Dec-12 11:32N 35°54' W 005°18'0 0.0
2014-Dec-12 10:32N 35°54' W 005°18'0 0.0
2014-Dec-12 09:33N 35°54' W 005°18'2 2.1
2014-Dec-12 08:33N 35°56' W 005°18'0 0.1
2014-Dec-12 07:33N 35°56' W 005°18'1 0.6
2014-Dec-12 06:33N 35°55' W 005°17'0 0.5
2014-Dec-12 05:33N 35°55' W 005°17'  
Track history (hours):
 
Tides and Currents Weather Stations Pressure Air Temp Water Temp Dewpoint Dewpoint Depression Visibility Wind Speed Wind Dir Waves Ship Positions

Velserdiep

Last reported at 2014-Dec-20 21:33 UTC. Time now 2014-Dec-20 22:18 UTC.
Position N 53°29' E 005°09'.

Length 120 m; draft 5.3 m.

Type: Cargo ship. MMSI: 244484000.

Date/timePositionNaut miles runAvg speedWind from/ knotsBaromVisibWave heightAir tempDewpointWater temp
2014-Dec-20 21:33N 53°29' E 005°09'8 8.0
2014-Dec-20 20:33N 53°27' E 004°57'8 8.1
2014-Dec-20 19:33N 53°24' E 004°44'6 6.5
2014-Dec-20 18:33N 53°18' E 004°38'7 6.1
2014-Dec-20 17:21N 53°12' E 004°32'5 6.5
2014-Dec-20 16:33N 53°07' E 004°28'17 8.1
2014-Dec-20 14:25N 52°52' E 004°15'1410.7
2014-Dec-20 13:09N 52°42' E 004°00'6 9.4
2014-Dec-20 12:33N 52°36' E 003°57'9 8.9
2014-Dec-20 11:33N 52°28' E 003°54'9 9.1
2014-Dec-20 10:33N 52°19' E 003°52'8 8.0
2014-Dec-20 09:33N 52°11' E 003°55'8 7.5
2014-Dec-20 08:33N 52°04' E 003°59'8 8.3
2014-Dec-20 07:33N 51°58' E 004°09'1010.5
2014-Dec-20 06:33N 51°54' E 004°24'3 2.4
2014-Dec-20 05:32N 51°54' E 004°28'0 0.0
2014-Dec-20 04:32N 51°54' E 004°28'0 0.0
2014-Dec-20 03:32N 51°54' E 004°28'0 0.0
2014-Dec-20 02:32N 51°54' E 004°28'0 0.0
2014-Dec-20 01:32N 51°54' E 004°28'0 0.0
2014-Dec-20 00:32N 51°54' E 004°28'0 0.3
2014-Dec-19 23:33N 51°54' E 004°28'1 1.4
2014-Dec-19 22:33N 51°53' E 004°26'0 0.0
2014-Dec-19 21:33N 51°53' E 004°26'0 0.0
2014-Dec-19 20:33N 51°53' E 004°26'0 0.0
2014-Dec-19 19:33N 51°53' E 004°26'0 0.0
2014-Dec-19 18:33N 51°53' E 004°26'0 0.0
2014-Dec-19 17:33N 51°53' E 004°26'0 0.0
2014-Dec-19 16:33N 51°53' E 004°26'0 0.0
2014-Dec-19 15:33N 51°53' E 004°26'0 0.0
2014-Dec-19 14:33N 51°53' E 004°26'0 0.0
2014-Dec-19 13:33N 51°53' E 004°26'0 0.0
2014-Dec-19 12:33N 51°53' E 004°26'0 0.0
2014-Dec-19 11:33N 51°53' E 004°26'0 0.0
2014-Dec-19 10:33N 51°53' E 004°26'0 0.0
2014-Dec-19 09:33N 51°53' E 004°26'0 0.0
2014-Dec-19 08:33N 51°53' E 004°26'0 0.0
2014-Dec-19 07:33N 51°53' E 004°26'0 0.0
2014-Dec-19 06:33N 51°53' E 004°26'0 0.0
2014-Dec-19 05:33N 51°53' E 004°26'0 0.2
2014-Dec-19 04:33N 51°53' E 004°27'1 1.1
2014-Dec-19 03:33N 51°54' E 004°28'0 0.0
2014-Dec-19 02:33N 51°54' E 004°28'0 0.0
2014-Dec-19 01:33N 51°54' E 004°28'0 0.0
2014-Dec-19 00:33N 51°54' E 004°28'0 0.0
2014-Dec-18 23:33N 51°54' E 004°28'0 0.0
2014-Dec-18 22:33N 51°54' E 004°28'0 0.0
2014-Dec-18 21:33N 51°54' E 004°28'0 0.0
2014-Dec-18 20:33N 51°54' E 004°28'0 0.0
2014-Dec-18 19:33N 51°54' E 004°28'0 0.0
2014-Dec-18 18:33N 51°54' E 004°28'0 0.0
2014-Dec-18 17:33N 51°54' E 004°28'0 0.0
2014-Dec-18 16:33N 51°54' E 004°28'0 0.0
2014-Dec-18 15:33N 51°54' E 004°28'0 0.0
2014-Dec-18 14:33N 51°54' E 004°28'0 0.0
2014-Dec-18 13:33N 51°54' E 004°28'0 0.0
2014-Dec-18 12:33N 51°54' E 004°28'0 0.0
2014-Dec-18 11:33N 51°54' E 004°28'0 0.0
2014-Dec-18 10:33N 51°54' E 004°28'2 2.4
2014-Dec-18 09:33N 51°54' E 004°24'9 9.3
2014-Dec-18 08:33N 51°57' E 004°10'10 9.6
2014-Dec-18 07:33N 52°00' E 003°55'9 9.3
2014-Dec-18 06:33N 51°58' E 003°40'1010.1
2014-Dec-18 05:32N 51°55' E 003°24'1210.1
2014-Dec-18 04:20N 51°52' E 003°05'1910.3
2014-Dec-18 02:32N 51°45' E 002°37'1111.0
2014-Dec-18 01:33N 51°37' E 002°26'1211.5
2014-Dec-18 00:28N 51°27' E 002°14'1111.7
2014-Dec-17 23:33N 51°18' E 002°07'1111.4
2014-Dec-17 22:34N 51°10' E 001°54'1212.3
2014-Dec-17 21:33N 51°02' E 001°39'  
2014-Dec-14 00:20N 39°13' W 009°56'7 8.3
2014-Dec-13 23:28N 39°06' W 009°56'8 8.1
2014-Dec-13 22:33N 38°59' W 009°56'9 8.4
2014-Dec-13 21:31N 38°50' W 009°56'9 8.7
2014-Dec-13 20:31N 38°41' W 009°56'8 8.4
2014-Dec-13 19:31N 38°33' W 009°54'9 8.9
2014-Dec-13 18:33N 38°25' W 009°51'10 9.5
2014-Dec-13 17:31N 38°15' W 009°49'11 9.7
2014-Dec-13 16:25N 38°05' W 009°45'11 9.8
2014-Dec-13 15:16N 37°54' W 009°42'7 9.9
2014-Dec-13 14:33N 37°47' W 009°40'10 9.7
2014-Dec-13 13:33N 37°38' W 009°37'10 9.6
2014-Dec-13 12:31N 37°28' W 009°35'220 9.2
2014-Dec-12 12:33N 35°59' W 005°24'7 6.6
2014-Dec-12 11:32N 35°54' W 005°18'0 0.0
2014-Dec-12 10:32N 35°54' W 005°18'0 0.0
2014-Dec-12 09:33N 35°54' W 005°18'2 2.1
2014-Dec-12 08:33N 35°56' W 005°18'0 0.1
2014-Dec-12 07:33N 35°56' W 005°18'1 0.6
2014-Dec-12 06:33N 35°55' W 005°17'0 0.5
2014-Dec-12 05:33N 35°55' W 005°17'  

Dump ship's entire track history